createdAt,value
2024-03-05T00:02:47.791Z,58.68
2024-03-05T00:06:19.777Z,59.42
2024-03-05T00:09:43.738Z,59.53
2024-03-05T00:13:31.348Z,59.51
2024-03-05T00:17:20.443Z,59.30
2024-03-05T00:21:09.662Z,59.78
2024-03-05T00:24:57.513Z,59.64
2024-03-05T00:28:12.361Z,59.95
2024-03-05T00:31:29.699Z,60.08
2024-03-05T00:35:00.283Z,59.67
2024-03-05T00:38:15.076Z,59.30
2024-03-05T00:42:07.598Z,59.58
2024-03-05T00:45:32.907Z,59.47
2024-03-05T00:49:04.818Z,59.69
2024-03-05T00:52:34.003Z,59.97
2024-03-05T00:56:17.409Z,59.53
2024-03-05T00:59:31.697Z,60.67
2024-03-05T01:03:01.560Z,59.88
2024-03-05T01:06:43.194Z,60.30
2024-03-05T01:10:12.272Z,60.24
2024-03-05T01:13:55.250Z,60.15
2024-03-05T01:17:20.141Z,60.17
2024-03-05T01:21:01.942Z,59.91
2024-03-05T01:24:04.438Z,59.79
2024-03-05T01:27:23.509Z,60.29
2024-03-05T01:30:42.362Z,60.48
2024-03-05T01:33:48.118Z,60.59
2024-03-05T01:37:19.590Z,60.76
2024-03-05T01:40:26.161Z,60.45
2024-03-05T01:43:31.381Z,60.26
2024-03-05T01:47:18.458Z,60.54
2024-03-05T01:50:23.912Z,60.49
2024-03-05T01:54:02.879Z,60.52
2024-03-05T01:57:45.680Z,60.55
2024-03-05T02:01:08.578Z,60.74
2024-03-05T02:04:24.888Z,61.32
2024-03-05T02:08:06.910Z,60.90
2024-03-05T02:11:59.447Z,61.98
2024-03-05T02:15:14.783Z,61.57
2024-03-05T02:18:38.726Z,61.81
2024-03-05T02:22:03.662Z,61.95
2024-03-05T02:25:52.945Z,61.63
2024-03-05T02:29:42.122Z,61.89
2024-03-05T02:33:13.903Z,62.11
2024-03-05T02:36:35.624Z,62.37
2024-03-05T02:40:24.886Z,61.95
2024-03-05T02:44:06.982Z,62.29
2024-03-05T02:47:38.801Z,62.84
2024-03-05T02:51:28.039Z,62.86
2024-03-05T02:54:58.509Z,62.87
2024-03-05T02:58:47.708Z,63.03
2024-03-05T03:02:09.195Z,62.53
2024-03-05T03:05:43.856Z,62.89
2024-03-05T03:08:41.872Z,62.50
2024-03-05T03:12:16.381Z,62.74
2024-03-05T03:15:47.130Z,62.57
2024-03-05T03:18:54.773Z,62.48
2024-03-05T03:22:04.005Z,62.81
2024-03-05T03:25:24.786Z,62.99
2024-03-05T03:29:13.977Z,63.66
2024-03-05T03:32:56.008Z,63.21
2024-03-05T03:35:57.752Z,62.64
2024-03-05T03:39:22.492Z,63.76
2024-03-05T03:42:28.467Z,64.40
2024-03-05T03:45:47.491Z,63.58
2024-03-05T03:49:39.366Z,63.63
2024-03-05T03:52:59.500Z,63.67
2024-03-05T03:56:19.420Z,64.75
2024-03-05T03:59:48.552Z,64.78
2024-03-05T04:03:20.697Z,64.37
2024-03-05T04:06:52.272Z,64.69
2024-03-05T04:10:24.496Z,64.42
2024-03-05T04:13:44.794Z,64.32
2024-03-05T04:17:09.749Z,64.69
2024-03-05T04:20:28.576Z,64.44
2024-03-05T04:23:52.638Z,64.53
2024-03-05T04:26:49.169Z,64.66
2024-03-05T04:30:13.843Z,64.53
2024-03-05T04:33:43.231Z,64.51
2024-03-05T04:36:59.602Z,64.48
2024-03-05T04:40:31.815Z,64.33
2024-03-05T04:44:05.520Z,63.98
2024-03-05T04:47:20.471Z,63.70
2024-03-05T04:51:09.645Z,64.13
2024-03-05T04:54:45.410Z,64.57
2024-03-05T04:58:23.359Z,64.40
2024-03-05T05:01:52.351Z,64.43
2024-03-05T05:05:41.414Z,64.37
2024-03-05T05:09:02.133Z,64.59
2024-03-05T05:12:24.241Z,64.49
2024-03-05T05:15:36.083Z,64.55
2024-03-05T05:19:10.157Z,64.53
2024-03-05T05:22:44.830Z,65.33
2024-03-05T05:26:07.945Z,64.66
2024-03-05T05:29:31.803Z,64.90
2024-03-05T05:33:29.237Z,65.12
2024-03-05T05:36:40.441Z,64.45
2024-03-05T05:39:59.561Z,64.20
2024-03-05T05:43:31.644Z,64.54
2024-03-05T05:46:53.246Z,64.59
2024-03-05T05:50:14.962Z,64.33
2024-03-05T05:53:20.209Z,64.20
2024-03-05T05:56:30.521Z,64.06
2024-03-05T05:59:46.770Z,63.96
2024-03-05T06:02:51.057Z,64.28
2024-03-05T06:06:36.243Z,64.09
2024-03-05T06:10:18.390Z,63.72
2024-03-05T06:14:02.435Z,63.50
2024-03-05T06:17:42.636Z,63.40
2024-03-05T06:21:03.866Z,63.04
2024-03-05T06:24:53.342Z,63.05
2024-03-05T06:28:35.974Z,62.96
2024-03-05T06:32:08.208Z,63.12
2024-03-05T06:35:38.994Z,63.00
2024-03-05T06:39:29.150Z,63.16
2024-03-05T06:42:35.763Z,63.17
2024-03-05T06:45:52.857Z,63.18
2024-03-05T06:49:03.811Z,63.03
2024-03-05T06:52:24.878Z,62.71
2024-03-05T06:55:55.919Z,62.76
2024-03-05T06:59:06.452Z,60.80
2024-03-05T07:02:04.394Z,57.32
2024-03-05T07:04:36.606Z,54.54
2024-03-05T07:07:10.297Z,52.53
2024-03-05T07:09:44.338Z,50.45
2024-03-05T07:12:14.475Z,48.89
2024-03-05T07:15:07.145Z,46.41
2024-03-05T07:18:27.122Z,45.12
2024-03-05T07:21:13.104Z,43.29
2024-03-05T07:23:47.574Z,41.37
2024-03-05T07:26:33.761Z,40.51
2024-03-05T07:29:32.724Z,38.99
2024-03-05T07:32:36.958Z,38.75
2024-03-05T07:35:09.830Z,38.70
2024-03-05T07:37:38.492Z,38.03
2024-03-05T07:40:22.083Z,37.03
2024-03-05T07:43:05.062Z,36.48
2024-03-05T07:46:01.372Z,36.06
2024-03-05T07:48:59.970Z,35.15
2024-03-05T07:51:41.069Z,35.07
2024-03-05T07:55:14.702Z,34.71
2024-03-05T07:58:17.474Z,34.77
2024-03-05T08:00:51.888Z,34.66
2024-03-05T08:03:55.837Z,34.29
2024-03-05T08:06:32.014Z,33.95
2024-03-05T08:09:13.335Z,33.79
2024-03-05T08:12:05.053Z,33.43
2024-03-05T08:14:59.371Z,33.08
2024-03-05T08:18:02.325Z,33.52
2024-03-05T08:21:37.265Z,33.34
2024-03-05T08:24:56.378Z,33.80
2024-03-05T08:27:39.961Z,33.17
2024-03-05T08:30:41.942Z,32.83
2024-03-05T08:33:30.314Z,32.91
2024-03-05T08:36:32.053Z,33.13
2024-03-05T08:39:20.918Z,32.72
2024-03-05T08:41:49.623Z,33.02
2024-03-05T08:44:36.408Z,32.99
2024-03-05T08:47:40.402Z,32.71
2024-03-05T08:51:19.078Z,32.50
2024-03-05T08:54:22.167Z,32.41
2024-03-05T08:57:13.495Z,33.15
2024-03-05T09:00:16.553Z,33.18
2024-03-05T09:12:35.326Z,33.22
2024-03-05T09:17:14.384Z,33.06
2024-03-05T09:24:45.623Z,32.80
2024-03-05T09:28:55.760Z,32.98
2024-03-05T09:33:25.504Z,32.85
2024-03-05T09:37:35.321Z,32.97
2024-03-05T09:45:09.694Z,33.31
2024-03-05T09:48:34.087Z,33.33
2024-03-05T10:03:02.292Z,31.91
2024-03-05T10:05:41.490Z,31.60
2024-03-05T10:08:19.862Z,31.80
2024-03-05T10:15:00.627Z,31.99
2024-03-05T10:18:15.528Z,32.56
2024-03-05T10:20:47.382Z,32.50
2024-03-05T10:23:30.844Z,32.57
2024-03-05T10:26:19.139Z,32.23
2024-03-05T10:29:04.342Z,32.76
2024-03-05T10:32:07.529Z,32.43
2024-03-05T10:34:47.620Z,31.59
2024-03-05T10:37:19.147Z,31.49
2024-03-05T10:39:53.865Z,31.87
2024-03-05T10:42:26.403Z,31.86
2024-03-05T10:44:54.666Z,31.59
2024-03-05T10:47:25.076Z,31.63
2024-03-05T10:50:00.667Z,31.79
2024-03-05T10:53:17.062Z,32.09
2024-03-05T10:56:15.132Z,32.70
2024-03-05T10:59:02.458Z,32.41
2024-03-05T11:01:55.119Z,32.96
2024-03-05T11:04:58.033Z,33.31
2024-03-05T11:08:46.679Z,33.68
2024-03-05T11:11:32.052Z,33.90
2024-03-05T11:14:22.041Z,34.00
2024-03-05T11:17:34.166Z,34.37
2024-03-05T11:20:41.046Z,34.37
2024-03-05T11:23:14.184Z,34.05
2024-03-05T11:25:56.063Z,33.38
2024-03-05T11:28:29.298Z,32.73
2024-03-05T11:31:18.649Z,32.48
2024-03-05T11:34:12.834Z,32.16
2024-03-05T11:36:40.910Z,32.56
2024-03-05T11:39:18.215Z,32.60
2024-03-05T11:41:46.857Z,33.42
2024-03-05T11:44:14.670Z,33.63
2024-03-05T11:46:48.999Z,33.64
2024-03-05T11:49:17.515Z,33.02
2024-03-05T11:51:46.604Z,32.62
2024-03-05T11:54:21.708Z,32.44
2024-03-05T11:56:58.784Z,31.83
2024-03-05T11:59:43.994Z,31.19
2024-03-05T12:02:18.242Z,30.72
2024-03-05T12:04:48.084Z,30.76
2024-03-05T12:07:15.466Z,30.21
2024-03-05T12:09:43.987Z,30.33
2024-03-05T12:12:13.476Z,29.36
2024-03-05T12:14:49.783Z,28.96
2024-03-05T12:17:18.923Z,28.87
2024-03-05T12:19:47.286Z,29.09
2024-03-05T12:22:17.072Z,28.20
2024-03-05T12:24:44.059Z,29.12
2024-03-05T12:27:11.844Z,28.57
2024-03-05T12:29:40.873Z,28.61
2024-03-05T12:32:09.614Z,28.43
2024-03-05T12:34:37.020Z,28.43
2024-03-05T12:37:08.550Z,28.74
2024-03-05T12:39:39.395Z,29.40
2024-03-05T12:42:10.230Z,29.48
2024-03-05T12:44:37.623Z,29.80
2024-03-05T12:47:05.936Z,30.07
2024-03-05T12:49:36.477Z,30.21
2024-03-05T12:52:08.994Z,29.46
2024-03-05T12:54:36.330Z,29.81
2024-03-05T12:57:08.475Z,30.17
2024-03-05T12:59:35.215Z,30.39
2024-03-05T13:02:03.672Z,30.45
2024-03-05T13:04:30.866Z,30.32
2024-03-05T13:06:58.039Z,30.71
2024-03-05T13:09:24.874Z,31.25
2024-03-05T13:11:52.386Z,31.63
2024-03-05T13:14:23.176Z,31.61
2024-03-05T13:16:52.935Z,31.72
2024-03-05T13:19:22.535Z,30.93
2024-03-05T13:21:50.197Z,31.07
2024-03-05T13:24:17.003Z,31.15
2024-03-05T13:26:49.047Z,30.85
2024-03-05T13:29:16.823Z,30.74
2024-03-05T13:31:43.853Z,30.89
2024-03-05T13:34:11.337Z,30.94
2024-03-05T13:36:40.276Z,30.87
2024-03-05T13:39:09.725Z,31.31
2024-03-05T13:41:40.771Z,31.61
2024-03-05T13:44:09.293Z,31.71
2024-03-05T13:46:40.012Z,31.53
2024-03-05T13:49:11.804Z,31.88
2024-03-05T13:51:38.714Z,31.59
2024-03-05T13:54:06.861Z,31.34
2024-03-05T13:56:33.647Z,31.51
2024-03-05T13:59:01.750Z,31.67
2024-03-05T14:01:29.435Z,31.95
2024-03-05T14:03:56.639Z,31.67
2024-03-05T14:06:24.926Z,32.07
2024-03-05T14:08:52.318Z,32.21
2024-03-05T14:11:19.395Z,32.81
2024-03-05T14:13:46.567Z,33.20
2024-03-05T14:16:18.412Z,33.86
2024-03-05T14:18:45.195Z,34.07
2024-03-05T14:21:12.064Z,34.44
2024-03-05T14:23:40.281Z,34.83
2024-03-05T14:26:09.019Z,35.14
2024-03-05T14:28:35.856Z,35.45
2024-03-05T14:31:03.826Z,35.95
2024-03-05T14:33:30.663Z,35.99
2024-03-05T14:35:57.833Z,36.20
2024-03-05T14:38:25.331Z,36.31
2024-03-05T14:40:54.718Z,36.62
2024-03-05T14:43:25.103Z,36.72
2024-03-05T14:45:54.124Z,37.03
2024-03-05T14:48:20.930Z,37.11
2024-03-05T14:50:48.904Z,37.39
2024-03-05T14:53:15.762Z,37.14
2024-03-05T14:55:42.932Z,37.49
2024-03-05T14:58:09.761Z,37.39
2024-03-05T15:00:36.998Z,37.70
2024-03-05T15:03:03.866Z,37.85
2024-03-05T15:05:31.734Z,38.10
2024-03-05T15:07:58.559Z,38.21
2024-03-05T15:10:28.805Z,38.32
2024-03-05T15:12:55.778Z,38.87
2024-03-05T15:15:24.038Z,38.76
2024-03-05T15:17:51.177Z,39.19
2024-03-05T15:20:18.950Z,38.92
2024-03-05T15:22:50.762Z,38.99
2024-03-05T15:25:20.598Z,39.42
2024-03-05T15:27:52.877Z,39.50
2024-03-05T15:30:24.562Z,39.63
2024-03-05T15:32:51.531Z,39.94
2024-03-05T15:35:20.993Z,40.23
2024-03-05T15:37:49.078Z,40.81
2024-03-05T15:40:21.260Z,41.30
2024-03-05T15:42:57.959Z,41.45
2024-03-05T15:45:27.798Z,41.94
2024-03-05T15:47:54.770Z,42.06
2024-03-05T15:50:24.355Z,42.48
2024-03-05T15:52:54.622Z,42.49
2024-03-05T15:55:28.250Z,42.57
2024-03-05T15:58:03.417Z,43.12
2024-03-05T16:00:36.688Z,43.16
2024-03-05T16:03:06.819Z,43.08
2024-03-05T16:05:43.439Z,43.95
2024-03-05T16:10:49.341Z,44.54
2024-03-05T16:13:16.802Z,44.67
2024-03-05T16:15:46.264Z,45.71
2024-03-05T16:18:16.732Z,45.38
2024-03-05T16:20:43.896Z,46.29
2024-03-05T16:23:11.706Z,45.92
2024-03-05T16:25:39.955Z,47.05
2024-03-05T16:28:09.798Z,46.73
2024-03-05T16:30:37.812Z,47.18
2024-03-05T16:33:05.597Z,47.86
2024-03-05T16:35:35.648Z,48.00
2024-03-05T16:38:06.417Z,47.01
2024-03-05T16:40:37.780Z,47.34
2024-03-05T16:43:05.799Z,46.54
2024-03-05T16:45:32.879Z,47.36
2024-03-05T16:48:00.477Z,46.78
2024-03-05T16:50:29.931Z,47.31
2024-03-05T16:52:58.218Z,47.30
2024-03-05T16:55:29.435Z,47.78
2024-03-05T16:57:59.328Z,48.25
2024-03-05T17:00:31.239Z,48.03
2024-03-05T17:03:19.147Z,48.28
2024-03-05T17:05:51.383Z,48.34
2024-03-05T17:08:21.918Z,48.16
2024-03-05T17:10:51.318Z,48.78
2024-03-05T17:13:19.435Z,49.38
2024-03-05T17:15:53.854Z,49.38
2024-03-05T17:18:23.982Z,49.61
2024-03-05T17:20:51.486Z,49.56
2024-03-05T17:23:23.180Z,49.49
2024-03-05T17:25:52.081Z,49.95
2024-03-05T17:28:18.872Z,49.87
2024-03-05T17:30:46.553Z,49.07
2024-03-05T17:33:15.546Z,49.50
2024-03-05T17:35:43.153Z,50.40
2024-03-05T17:38:12.766Z,50.50
2024-03-05T17:40:39.455Z,49.58
2024-03-05T17:43:06.285Z,49.87
2024-03-05T17:45:33.448Z,49.39
2024-03-05T17:48:05.295Z,49.74
2024-03-05T17:50:32.487Z,49.75
2024-03-05T17:52:59.266Z,49.61
2024-03-05T17:55:26.119Z,49.93
2024-03-05T17:57:53.036Z,50.11
2024-03-05T18:00:27.157Z,51.79
2024-03-05T18:02:55.142Z,50.25
2024-03-05T18:05:28.272Z,50.24
2024-03-05T18:07:56.638Z,51.45
2024-03-05T18:10:25.139Z,50.75
2024-03-05T18:12:52.964Z,50.84
2024-03-05T18:15:21.258Z,50.88
2024-03-05T18:17:50.068Z,51.26
2024-03-05T18:20:18.669Z,51.43
2024-03-05T18:22:46.486Z,51.85
2024-03-05T18:25:20.893Z,51.77
2024-03-05T18:27:56.304Z,51.76
2024-03-05T18:30:28.692Z,51.53
2024-03-05T18:32:55.965Z,52.02
2024-03-05T18:35:25.062Z,52.50
2024-03-05T18:37:52.930Z,53.25
2024-03-05T18:40:21.749Z,53.02
2024-03-05T18:42:50.915Z,53.27
2024-03-05T18:45:19.292Z,52.94
2024-03-05T18:47:58.423Z,53.29
2024-03-05T18:50:30.331Z,53.33
2024-03-05T18:52:57.432Z,53.44
2024-03-05T18:55:29.178Z,53.53
2024-03-05T18:57:56.806Z,54.04
2024-03-05T19:00:23.867Z,53.75
2024-03-05T19:02:51.246Z,54.15
2024-03-05T19:05:19.212Z,54.63
2024-03-05T19:07:47.301Z,54.14
2024-03-05T19:10:16.510Z,54.80
2024-03-05T19:12:43.907Z,54.80
2024-03-05T19:15:13.351Z,54.51
2024-03-05T19:17:43.463Z,54.78
2024-03-05T19:20:13.762Z,54.96
2024-03-05T19:22:41.182Z,56.39
2024-03-05T19:25:11.160Z,56.01
2024-03-05T19:27:42.062Z,55.47
2024-03-05T19:30:16.462Z,55.61
2024-03-05T19:32:43.767Z,56.76
2024-03-05T19:35:14.359Z,56.08
2024-03-05T19:37:45.536Z,56.80
2024-03-05T19:40:16.239Z,56.33
2024-03-05T19:42:45.358Z,57.28
2024-03-05T19:45:12.558Z,56.86
2024-03-05T19:47:39.765Z,56.81
2024-03-05T19:50:07.206Z,57.41
2024-03-05T19:52:35.641Z,57.92
2024-03-05T19:55:02.868Z,58.60
2024-03-05T19:57:29.684Z,57.53
2024-03-05T19:59:59.670Z,56.89
2024-03-05T20:02:28.632Z,58.69
2024-03-05T20:04:55.971Z,58.59
2024-03-05T20:07:22.678Z,59.48
2024-03-05T20:09:49.571Z,59.88
2024-03-05T20:12:18.059Z,59.10
2024-03-05T20:14:44.905Z,58.30
2024-03-05T20:17:12.062Z,58.47
2024-03-05T20:19:39.990Z,58.42
2024-03-05T20:22:07.926Z,58.77
2024-03-05T20:24:35.423Z,58.38
2024-03-05T20:27:02.774Z,58.87
2024-03-05T20:29:30.462Z,59.98
2024-03-05T20:31:57.792Z,60.18
2024-03-05T20:34:26.098Z,59.37
2024-03-05T20:36:52.942Z,60.03
2024-03-05T20:39:19.666Z,59.66
2024-03-05T20:41:46.702Z,58.95
2024-03-05T20:44:17.322Z,59.04
2024-03-05T20:46:44.467Z,58.97
2024-03-05T20:49:11.381Z,59.40
2024-03-05T20:51:38.842Z,59.58
2024-03-05T20:54:05.602Z,59.43
2024-03-05T20:56:32.359Z,59.26
2024-03-05T20:58:59.246Z,59.08
2024-03-05T21:01:26.172Z,58.98
2024-03-05T21:03:53.488Z,58.89
2024-03-05T21:06:20.275Z,58.96
2024-03-05T21:08:48.080Z,59.05
2024-03-05T21:11:15.581Z,59.53
2024-03-05T21:13:42.801Z,59.20
2024-03-05T21:16:11.125Z,59.34
2024-03-05T21:18:38.242Z,59.43
2024-03-05T21:21:05.938Z,60.32
2024-03-05T21:23:34.240Z,60.03
2024-03-05T21:26:13.891Z,59.90
2024-03-05T21:28:51.662Z,60.19
2024-03-05T21:31:18.807Z,60.20
2024-03-05T21:33:45.771Z,60.11
2024-03-05T21:36:12.774Z,60.22
2024-03-05T21:38:39.567Z,60.11
2024-03-05T21:41:09.212Z,60.20
2024-03-05T21:43:35.983Z,60.04
2024-03-05T21:46:04.358Z,60.50
2024-03-05T21:48:31.174Z,60.43
2024-03-05T21:51:06.272Z,60.89
2024-03-05T21:53:36.941Z,61.11
2024-03-05T21:56:03.994Z,60.76
2024-03-05T21:58:30.859Z,61.20
2024-03-05T22:00:57.676Z,61.15
2024-03-05T22:03:24.516Z,61.21
2024-03-05T22:05:51.688Z,61.75
2024-03-05T22:08:18.740Z,61.73
2024-03-05T22:10:46.177Z,61.30
2024-03-05T22:13:13.260Z,61.04
2024-03-05T22:15:40.388Z,60.98
2024-03-05T22:18:14.322Z,60.95
2024-03-05T22:20:44.187Z,61.16
2024-03-05T22:23:24.340Z,61.12
2024-03-05T22:25:51.361Z,61.29
2024-03-05T22:28:27.754Z,60.98
2024-03-05T22:30:55.913Z,60.99
2024-03-05T22:33:28.968Z,61.59
2024-03-05T22:35:56.433Z,62.44
2024-03-05T22:38:33.081Z,62.69
2024-03-05T22:41:00.433Z,61.66
2024-03-05T22:43:27.788Z,61.78
2024-03-05T22:45:54.784Z,62.34
2024-03-05T22:48:31.674Z,62.42
2024-03-05T22:51:22.265Z,62.32
2024-03-05T22:54:01.598Z,62.30
2024-03-05T22:56:28.397Z,62.13
2024-03-05T22:58:55.342Z,62.73
2024-03-05T23:01:22.135Z,63.17
2024-03-05T23:03:49.289Z,62.59
2024-03-05T23:06:21.083Z,62.99
2024-03-05T23:08:51.867Z,62.66
2024-03-05T23:11:18.989Z,62.58
2024-03-05T23:13:45.961Z,62.57
2024-03-05T23:16:13.903Z,62.55
2024-03-05T23:18:41.429Z,63.07
2024-03-05T23:21:10.171Z,64.48
2024-03-05T23:23:38.604Z,64.03
2024-03-05T23:26:06.911Z,63.47
2024-03-05T23:28:33.753Z,64.11
2024-03-05T23:31:00.553Z,64.13
2024-03-05T23:33:27.298Z,64.14
2024-03-05T23:35:53.967Z,64.77
2024-03-05T23:38:21.411Z,64.63
2024-03-05T23:40:48.264Z,64.30
2024-03-05T23:43:15.113Z,64.43
2024-03-05T23:45:41.942Z,65.26
2024-03-05T23:48:09.793Z,64.64
2024-03-05T23:50:36.679Z,64.69
2024-03-05T23:53:03.722Z,65.64
2024-03-05T23:55:30.925Z,65.77
2024-03-05T23:57:57.690Z,65.15
